Rotterdam — PDGS — position and weather

sailwx.info

Track history (hours):
 
Tides and Currents Weather Stations Pressure Air Temp Water Temp Dewpoint Dewpoint Depression Visibility Wind Speed Wind Dir Waves Ship Positions

Rotterdam

Operator: Holland America Line

Last reported at 2017-Mar-28 06:00 UTC. Time now 2017-Mar-28 19:42 UTC.
Position N 19°42' W 067°54'.

Length 228 m; beam 29 m.

Type: Ship. MMSI: 24616700.

Wind from 310 at 10 knots

Barometer 1013.8 mb
Air temperature 24.8 ° C
Visibility: greater than 10.8 NM
Dewpoint 20.7 ° C
Water temperature 25.6 ° C

Date/timePositionNaut miles runAvg speedWind from/ knotsBaromVisibWave heightAir tempDewpointWater temp
2017-Mar-28 06:00N 19°42' W 067°54'12314.6 310 / 101013.810.8 24.820.725.6
2017-Mar-27 21:33N 18°30' W 066°08'3 2.7
2017-Mar-27 20:33N 18°28' W 066°07'0 0.0
2017-Mar-27 19:33N 18°28' W 066°07'0 0.0
2017-Mar-27 18:27N 18°28' W 066°07'0 0.0
2017-Mar-27 17:33N 18°28' W 066°07'0 0.0
2017-Mar-27 16:33N 18°28' W 066°07'0 0.0
2017-Mar-27 15:33N 18°28' W 066°07'0 0.0
2017-Mar-27 14:33N 18°28' W 066°07'0 0.0
2017-Mar-27 13:33N 18°28' W 066°07'0 0.0
2017-Mar-27 12:33N 18°28' W 066°07'0 0.1
2017-Mar-27 11:34N 18°28' W 066°07'7 6.8
2017-Mar-27 10:33N 18°31' W 066°00'6913.4
2017-Mar-27 05:24N 18°11' W 064°50'142 6.8
2017-Mar-26 08:29N 17°29' W 062°28'1212.7
2017-Mar-26 07:34N 17°20' W 062°20'1312.7
2017-Mar-26 06:34N 17°10' W 062°12'1313.4
2017-Mar-26 05:34N 17°01' W 062°02'1414.3
2017-Mar-26 04:33N 16°52' W 061°50'1414.3
2017-Mar-26 03:34N 16°44' W 061°37'1414.2
2017-Mar-26 02:34N 16°36' W 061°25'1413.5
2017-Mar-26 01:34N 16°26' W 061°16'16 7.8
2017-Mar-25 23:33N 16°11' W 061°21'1111.6
2017-Mar-25 22:34N 16°10' W 061°33'4 0.4
2017-Mar-25 12:05N 16°14' W 061°32'1 2.7
2017-Mar-25 11:33N 16°13' W 061°32'5214.5
2017-Mar-25 08:00N 15°36' W 060°54'179 3.6 090 / 281012.210.8 24.018.427.5
2017-Mar-23 06:00N 12°42' W 061°36'216 7.6 090 / 231011.710.8 26.020.828.0
2017-Mar-22 01:33N 16°15' W 062°17'1616.0
2017-Mar-22 00:33N 16°29' W 062°24'1616.3
2017-Mar-21 23:33N 16°43' W 062°32'82 4.7
2017-Mar-21 06:00N 17°48' W 063°24'7410.0 100 / 151013.910.8 28.022.927.0
2017-Mar-20 22:33N 18°23' W 064°33'1 0.1
2017-Mar-20 10:34N 18°24' W 064°33'8 7.6
2017-Mar-20 09:29N 18°33' W 064°33'1313.7
2017-Mar-20 08:34N 18°38' W 064°44'1313.4
2017-Mar-20 07:33N 18°50' W 064°52'3112.1
2017-Mar-20 05:00N 19°18' W 065°06'21012.4 140 / 151014.410.8 23.019.626.0
2017-Mar-19 12:00N 20°30' W 068°36'4310.8 120 / 181017.210.8 25.718.426.0
2017-Mar-19 08:00N 20°48' W 069°18'8911.1 120 / 151014.810.8 24.017.326.0
2017-Mar-19 00:00N 21°30' W 070°42'   080 / 191019.8 24.919.327.0
Track history (hours):
 
Tides and Currents Weather Stations Pressure Air Temp Water Temp Dewpoint Dewpoint Depression Visibility Wind Speed Wind Dir Waves Ship Positions

Rotterdam

Operator: Holland America Line

Last reported at 2017-Mar-28 06:00 UTC. Time now 2017-Mar-28 19:42 UTC.
Position N 19°42' W 067°54'.

Length 228 m; beam 29 m.

Type: Ship. MMSI: 24616700.

Wind from 310 at 10 knots

Barometer 1013.8 mb
Air temperature 24.8 ° C
Visibility: greater than 10.8 NM
Dewpoint 20.7 ° C
Water temperature 25.6 ° C

Date/timePositionNaut miles runAvg speedWind from/ knotsBaromVisibWave heightAir tempDewpointWater temp
2017-Mar-28 06:00N 19°42' W 067°54'12314.6 310 / 101013.810.8 24.820.725.6
2017-Mar-27 21:33N 18°30' W 066°08'3 2.7
2017-Mar-27 20:33N 18°28' W 066°07'0 0.0
2017-Mar-27 19:33N 18°28' W 066°07'0 0.0
2017-Mar-27 18:27N 18°28' W 066°07'0 0.0
2017-Mar-27 17:33N 18°28' W 066°07'0 0.0
2017-Mar-27 16:33N 18°28' W 066°07'0 0.0
2017-Mar-27 15:33N 18°28' W 066°07'0 0.0
2017-Mar-27 14:33N 18°28' W 066°07'0 0.0
2017-Mar-27 13:33N 18°28' W 066°07'0 0.0
2017-Mar-27 12:33N 18°28' W 066°07'0 0.1
2017-Mar-27 11:34N 18°28' W 066°07'7 6.8
2017-Mar-27 10:33N 18°31' W 066°00'6913.4
2017-Mar-27 05:24N 18°11' W 064°50'142 6.8
2017-Mar-26 08:29N 17°29' W 062°28'1212.7
2017-Mar-26 07:34N 17°20' W 062°20'1312.7
2017-Mar-26 06:34N 17°10' W 062°12'1313.4
2017-Mar-26 05:34N 17°01' W 062°02'1414.3
2017-Mar-26 04:33N 16°52' W 061°50'1414.3
2017-Mar-26 03:34N 16°44' W 061°37'1414.2
2017-Mar-26 02:34N 16°36' W 061°25'1413.5
2017-Mar-26 01:34N 16°26' W 061°16'16 7.8
2017-Mar-25 23:33N 16°11' W 061°21'1111.6
2017-Mar-25 22:34N 16°10' W 061°33'4 0.4
2017-Mar-25 12:05N 16°14' W 061°32'1 2.7
2017-Mar-25 11:33N 16°13' W 061°32'5214.5
2017-Mar-25 08:00N 15°36' W 060°54'179 3.6 090 / 281012.210.8 24.018.427.5
2017-Mar-23 06:00N 12°42' W 061°36'216 7.6 090 / 231011.710.8 26.020.828.0
2017-Mar-22 01:33N 16°15' W 062°17'1616.0
2017-Mar-22 00:33N 16°29' W 062°24'1616.3
2017-Mar-21 23:33N 16°43' W 062°32'82 4.7
2017-Mar-21 06:00N 17°48' W 063°24'7410.0 100 / 151013.910.8 28.022.927.0
2017-Mar-20 22:33N 18°23' W 064°33'1 0.1
2017-Mar-20 10:34N 18°24' W 064°33'8 7.6
2017-Mar-20 09:29N 18°33' W 064°33'1313.7
2017-Mar-20 08:34N 18°38' W 064°44'1313.4
2017-Mar-20 07:33N 18°50' W 064°52'3112.1
2017-Mar-20 05:00N 19°18' W 065°06'21012.4 140 / 151014.410.8 23.019.626.0
2017-Mar-19 12:00N 20°30' W 068°36'4310.8 120 / 181017.210.8 25.718.426.0
2017-Mar-19 08:00N 20°48' W 069°18'8911.1 120 / 151014.810.8 24.017.326.0
2017-Mar-19 00:00N 21°30' W 070°42'   080 / 191019.8 24.919.327.0

Dump ship's entire track history